sensor_id;sensor_type;location;lat;lon;timestamp;pressure;altitude;pressure_sealevel;temperature;humidity
929;BME280;451;47.988;7.842;2023-03-14T00:06:54;97003.78;;;11.80;100.00
929;BME280;451;47.988;7.842;2023-03-14T00:16:01;96952.19;;;11.03;100.00
929;BME280;451;47.988;7.842;2023-03-14T00:25:08;97059.34;;;11.58;100.00
929;BME280;451;47.988;7.842;2023-03-14T00:34:11;97055.25;;;11.62;100.00
929;BME280;451;47.988;7.842;2023-03-14T00:43:16;97059.88;;;11.80;100.00
929;BME280;451;47.988;7.842;2023-03-14T00:52:19;97061.69;;;11.80;100.00
929;BME280;451;47.988;7.842;2023-03-14T01:01:24;97010.97;;;11.59;100.00
929;BME280;451;47.988;7.842;2023-03-14T01:10:27;96997.84;;;11.53;100.00
929;BME280;451;47.988;7.842;2023-03-14T01:19:32;97018.25;;;11.57;100.00
929;BME280;451;47.988;7.842;2023-03-14T01:28:35;97050.38;;;11.72;100.00
929;BME280;451;47.988;7.842;2023-03-14T01:37:39;97042.72;;;11.64;100.00
929;BME280;451;47.988;7.842;2023-03-14T01:46:48;97034.06;;;11.13;100.00
929;BME280;451;47.988;7.842;2023-03-14T01:55:54;97021.25;;;10.78;100.00
929;BME280;451;47.988;7.842;2023-03-14T02:04:58;96938.09;;;10.33;100.00
929;BME280;451;47.988;7.842;2023-03-14T02:14:17;97003.66;;;10.85;100.00
929;BME280;451;47.988;7.842;2023-03-14T02:23:59;96983.13;;;11.01;100.00
929;BME280;451;47.988;7.842;2023-03-14T02:33:17;96955.16;;;11.13;100.00
929;BME280;451;47.988;7.842;2023-03-14T02:42:20;96922.94;;;11.24;96.21
929;BME280;451;47.988;7.842;2023-03-14T02:51:26;96888.81;;;11.17;93.27
929;BME280;451;47.988;7.842;2023-03-14T03:00:30;96903.94;;;11.22;92.45
929;BME280;451;47.988;7.842;2023-03-14T03:09:36;96881.03;;;11.29;90.34
929;BME280;451;47.988;7.842;2023-03-14T03:18:40;96877.94;;;11.32;89.69
929;BME280;451;47.988;7.842;2023-03-14T03:27:45;96857.97;;;11.24;87.65
929;BME280;451;47.988;7.842;2023-03-14T03:36:55;96862.00;;;11.27;86.54
929;BME280;451;47.988;7.842;2023-03-14T03:46:02;96830.44;;;11.27;86.00
929;BME280;451;47.988;7.842;2023-03-14T03:55:06;96827.81;;;11.27;87.10
929;BME280;451;47.988;7.842;2023-03-14T04:04:11;96812.06;;;11.20;86.59
929;BME280;451;47.988;7.842;2023-03-14T04:13:14;96813.03;;;11.26;85.28
929;BME280;451;47.988;7.842;2023-03-14T04:22:24;96770.66;;;11.16;84.14
929;BME280;451;47.988;7.842;2023-03-14T04:31:29;96728.88;;;11.26;82.17
929;BME280;451;47.988;7.842;2023-03-14T04:40:36;96747.25;;;11.08;82.23
929;BME280;451;47.988;7.842;2023-03-14T04:49:41;96737.84;;;11.18;82.08
929;BME280;451;47.988;7.842;2023-03-14T04:58:48;96714.81;;;11.14;81.83
929;BME280;451;47.988;7.842;2023-03-14T05:07:53;96702.56;;;11.26;81.96
929;BME280;451;47.988;7.842;2023-03-14T05:17:15;96643.66;;;11.09;80.50
929;BME280;451;47.988;7.842;2023-03-14T05:26:38;96696.56;;;11.37;78.38
929;BME280;451;47.988;7.842;2023-03-14T05:36:05;96701.94;;;11.49;76.56
929;BME280;451;47.988;7.842;2023-03-14T05:45:26;96703.03;;;11.59;75.93
929;BME280;451;47.988;7.842;2023-03-14T05:55:04;96688.53;;;11.68;74.53
929;BME280;451;47.988;7.842;2023-03-14T06:04:43;96683.47;;;11.74;74.67
929;BME280;451;47.988;7.842;2023-03-14T06:13:47;96676.16;;;11.69;73.97
929;BME280;451;47.988;7.842;2023-03-14T06:22:50;96659.34;;;11.88;73.24
929;BME280;451;47.988;7.842;2023-03-14T06:31:55;96557.69;;;11.27;72.18
929;BME280;451;47.988;7.842;2023-03-14T06:41:03;96648.22;;;12.04;70.57
929;BME280;451;47.988;7.842;2023-03-14T06:50:14;96602.66;;;12.16;69.67
929;BME280;451;47.988;7.842;2023-03-14T06:59:18;96666.00;;;12.74;66.10
929;BME280;451;47.988;7.842;2023-03-14T07:08:25;96663.91;;;12.76;64.18
929;BME280;451;47.988;7.842;2023-03-14T07:17:29;96695.53;;;13.17;63.26
929;BME280;451;47.988;7.842;2023-03-14T07:26:35;96709.69;;;13.63;61.66
929;BME280;451;47.988;7.842;2023-03-14T07:35:38;96675.00;;;13.71;59.66
929;BME280;451;47.988;7.842;2023-03-14T07:44:43;96690.16;;;13.64;61.62
929;BME280;451;47.988;7.842;2023-03-14T07:53:46;96740.00;;;13.25;65.81
929;BME280;451;47.988;7.842;2023-03-14T08:02:50;96742.53;;;13.44;67.27
929;BME280;451;47.988;7.842;2023-03-14T08:11:53;96754.31;;;13.06;68.19
929;BME280;451;47.988;7.842;2023-03-14T08:20:58;96769.78;;;12.91;69.34
929;BME280;451;47.988;7.842;2023-03-14T08:30:01;96741.59;;;13.03;70.03
929;BME280;451;47.988;7.842;2023-03-14T08:39:07;96796.94;;;13.21;70.92
929;BME280;451;47.988;7.842;2023-03-14T08:48:10;96793.19;;;12.99;71.97
929;BME280;451;47.988;7.842;2023-03-14T08:57:15;96810.19;;;13.03;73.32
929;BME280;451;47.988;7.842;2023-03-14T09:06:18;96811.78;;;13.04;72.68
929;BME280;451;47.988;7.842;2023-03-14T09:15:22;96813.09;;;13.25;73.95
929;BME280;451;47.988;7.842;2023-03-14T09:24:25;96821.16;;;13.00;74.38
929;BME280;451;47.988;7.842;2023-03-14T09:33:30;96819.81;;;13.09;73.62
929;BME280;451;47.988;7.842;2023-03-14T09:42:35;96748.81;;;12.25;73.76
929;BME280;451;47.988;7.842;2023-03-14T09:51:41;96827.81;;;12.61;74.18
929;BME280;451;47.988;7.842;2023-03-14T10:00:45;96877.31;;;12.59;76.37
929;BME280;451;47.988;7.842;2023-03-14T10:09:50;96851.66;;;12.36;81.26
929;BME280;451;47.988;7.842;2023-03-14T10:19:01;96864.25;;;11.98;83.52
929;BME280;451;47.988;7.842;2023-03-14T10:28:23;96858.66;;;12.06;83.61
929;BME280;451;47.988;7.842;2023-03-14T10:37:27;96892.16;;;12.24;85.09
929;BME280;451;47.988;7.842;2023-03-14T10:46:32;96882.28;;;11.94;87.42
929;BME280;451;47.988;7.842;2023-03-14T10:55:55;96826.28;;;11.38;90.59
929;BME280;451;47.988;7.842;2023-03-14T11:05:08;96925.81;;;11.79;91.29
929;BME280;451;47.988;7.842;2023-03-14T11:14:20;96927.59;;;11.53;92.89
929;BME280;451;47.988;7.842;2023-03-14T11:23:32;96969.44;;;11.61;100.00
929;BME280;451;47.988;7.842;2023-03-14T11:32:44;97022.31;;;11.22;100.00
929;BME280;451;47.988;7.842;2023-03-14T11:41:51;97175.09;;;8.85;100.00
929;BME280;451;47.988;7.842;2023-03-14T11:50:57;97145.06;;;8.32;100.00
929;BME280;451;47.988;7.842;2023-03-14T12:00:04;97220.97;;;9.30;99.47
929;BME280;451;47.988;7.842;2023-03-14T12:09:17;97283.06;;;9.92;94.33
929;BME280;451;47.988;7.842;2023-03-14T12:18:28;97319.44;;;10.02;85.05
929;BME280;451;47.988;7.842;2023-03-14T12:27:44;97352.03;;;10.75;75.93
929;BME280;451;47.988;7.842;2023-03-14T12:46:20;97371.91;;;12.09;65.20
929;BME280;451;47.988;7.842;2023-03-14T12:55:29;97340.41;;;11.30;60.50
929;BME280;451;47.988;7.842;2023-03-14T13:04:44;97419.72;;;11.27;64.92
929;BME280;451;47.988;7.842;2023-03-14T13:13:52;97310.59;;;9.75;73.74
929;BME280;451;47.988;7.842;2023-03-14T13:22:58;97470.63;;;10.86;72.95
929;BME280;451;47.988;7.842;2023-03-14T13:32:16;97477.72;;;11.06;63.94
929;BME280;451;47.988;7.842;2023-03-14T13:41:20;97480.50;;;10.84;63.30
929;BME280;451;47.988;7.842;2023-03-14T13:50:24;97500.25;;;11.15;64.51
929;BME280;451;47.988;7.842;2023-03-14T13:59:30;97524.31;;;11.12;60.34
929;BME280;451;47.988;7.842;2023-03-14T14:08:34;97518.06;;;11.19;58.38
929;BME280;451;47.988;7.842;2023-03-14T14:17:39;97531.72;;;10.54;63.72
929;BME280;451;47.988;7.842;2023-03-14T14:26:50;97569.41;;;10.40;69.19
929;BME280;451;47.988;7.842;2023-03-14T14:35:56;97566.50;;;10.90;65.62
929;BME280;451;47.988;7.842;2023-03-14T14:45:02;97560.84;;;11.41;63.41
929;BME280;451;47.988;7.842;2023-03-14T14:54:14;97544.91;;;11.69;63.08
929;BME280;451;47.988;7.842;2023-03-14T15:03:19;97547.63;;;11.21;61.38
929;BME280;451;47.988;7.842;2023-03-14T15:12:22;97527.59;;;11.27;61.58
929;BME280;451;47.988;7.842;2023-03-14T15:21:28;97521.38;;;11.48;59.26
929;BME280;451;47.988;7.842;2023-03-14T15:30:31;97514.16;;;12.42;58.18
929;BME280;451;47.988;7.842;2023-03-14T15:39:35;97538.47;;;12.37;57.06
929;BME280;451;47.988;7.842;2023-03-14T15:48:38;97565.63;;;11.85;58.40
929;BME280;451;47.988;7.842;2023-03-14T15:57:44;97531.81;;;11.21;60.60
929;BME280;451;47.988;7.842;2023-03-14T16:06:48;97534.31;;;11.36;61.70
929;BME280;451;47.988;7.842;2023-03-14T16:15:57;97560.38;;;11.18;62.25
929;BME280;451;47.988;7.842;2023-03-14T16:25:01;97576.97;;;10.84;65.50
929;BME280;451;47.988;7.842;2023-03-14T16:34:05;97576.41;;;8.97;96.79
929;BME280;451;47.988;7.842;2023-03-14T16:43:08;97632.25;;;9.12;100.00
929;BME280;451;47.988;7.842;2023-03-14T16:52:13;97645.34;;;9.42;95.37
929;BME280;451;47.988;7.842;2023-03-14T17:01:17;97694.41;;;9.77;90.62
929;BME280;451;47.988;7.842;2023-03-14T17:10:21;97684.41;;;9.87;87.65
929;BME280;451;47.988;7.842;2023-03-14T17:19:25;97713.34;;;9.58;89.44
929;BME280;451;47.988;7.842;2023-03-14T17:28:30;97747.16;;;9.09;90.38
929;BME280;451;47.988;7.842;2023-03-14T17:37:33;97763.59;;;9.03;85.07
929;BME280;451;47.988;7.842;2023-03-14T17:46:37;97764.19;;;9.27;80.46
929;BME280;451;47.988;7.842;2023-03-14T17:55:40;97788.56;;;9.13;78.51
929;BME280;451;47.988;7.842;2023-03-14T18:04:45;97775.66;;;9.26;72.44
929;BME280;451;47.988;7.842;2023-03-14T18:13:48;97766.53;;;8.85;73.22
929;BME280;451;47.988;7.842;2023-03-14T18:22:53;97819.59;;;9.10;74.04
929;BME280;451;47.988;7.842;2023-03-14T18:31:56;97821.50;;;8.47;82.44
929;BME280;451;47.988;7.842;2023-03-14T18:41:04;97821.31;;;8.18;79.42
929;BME280;451;47.988;7.842;2023-03-14T18:50:09;97741.91;;;7.56;80.45
929;BME280;451;47.988;7.842;2023-03-14T18:59:13;97830.41;;;7.91;80.79
929;BME280;451;47.988;7.842;2023-03-14T19:08:17;97855.59;;;7.92;80.40
929;BME280;451;47.988;7.842;2023-03-14T19:17:21;97848.53;;;8.01;80.81
929;BME280;451;47.988;7.842;2023-03-14T19:26:24;97848.31;;;8.49;75.70
929;BME280;451;47.988;7.842;2023-03-14T19:35:31;97820.91;;;7.98;79.00
929;BME280;451;47.988;7.842;2023-03-14T19:44:34;97846.78;;;8.63;77.62
929;BME280;451;47.988;7.842;2023-03-14T19:53:39;97847.16;;;8.83;76.96
929;BME280;451;47.988;7.842;2023-03-14T20:02:44;97853.88;;;8.55;78.44
929;BME280;451;47.988;7.842;2023-03-14T20:11:48;97820.00;;;8.14;81.25
929;BME280;451;47.988;7.842;2023-03-14T20:20:52;97884.56;;;8.38;89.60
929;BME280;451;47.988;7.842;2023-03-14T20:29:56;97913.34;;;7.91;98.31
929;BME280;451;47.988;7.842;2023-03-14T20:39:00;97788.59;;;6.55;100.00
929;BME280;451;47.988;7.842;2023-03-14T20:48:05;97922.03;;;7.59;100.00
929;BME280;451;47.988;7.842;2023-03-14T20:57:08;97932.84;;;7.48;100.00
929;BME280;451;47.988;7.842;2023-03-14T21:06:13;97915.00;;;7.51;100.00
929;BME280;451;47.988;7.842;2023-03-14T21:15:16;97963.72;;;7.77;100.00
929;BME280;451;47.988;7.842;2023-03-14T21:24:20;98009.00;;;7.69;100.00
929;BME280;451;47.988;7.842;2023-03-14T21:33:26;97998.06;;;6.41;100.00
929;BME280;451;47.988;7.842;2023-03-14T21:42:30;98045.00;;;5.72;100.00
929;BME280;451;47.988;7.842;2023-03-14T21:51:33;98062.06;;;6.01;100.00
929;BME280;451;47.988;7.842;2023-03-14T22:00:38;98079.03;;;6.23;100.00
929;BME280;451;47.988;7.842;2023-03-14T22:09:42;98084.69;;;6.19;100.00
929;BME280;451;47.988;7.842;2023-03-14T22:18:47;98108.72;;;6.22;100.00
929;BME280;451;47.988;7.842;2023-03-14T22:27:50;98132.06;;;6.24;100.00
929;BME280;451;47.988;7.842;2023-03-14T22:36:55;98137.56;;;6.21;100.00
929;BME280;451;47.988;7.842;2023-03-14T22:45:58;98188.72;;;6.14;100.00
929;BME280;451;47.988;7.842;2023-03-14T22:55:03;98179.78;;;6.16;100.00
929;BME280;451;47.988;7.842;2023-03-14T23:04:06;98230.69;;;6.02;100.00
929;BME280;451;47.988;7.842;2023-03-14T23:13:11;98251.69;;;6.01;100.00
929;BME280;451;47.988;7.842;2023-03-14T23:22:15;98246.00;;;5.60;100.00
929;BME280;451;47.988;7.842;2023-03-14T23:31:23;98253.34;;;5.38;100.00
929;BME280;451;47.988;7.842;2023-03-14T23:40:26;98174.25;;;5.29;100.00
929;BME280;451;47.988;7.842;2023-03-14T23:49:30;98281.78;;;5.21;100.00
929;BME280;451;47.988;7.842;2023-03-14T23:58:33;98248.13;;;4.91;100.00
